Alliance, Nebraska
Current Conditions -  °F | °C
As of 6:53 AM on Monday 22 Dec 2014 (Local Time) from KAIA Reporting Station
Clear Clear  
Wind Chill: -7°   Ceiling: Unl
Heat Index: -1°   Visibility: 10mi
Dew Point: -4°   Wind: 15mph
Humidity: 79%   Direction: 290°WNW
Pressure: 29.64"   Gusts: NA
Location:  42.1°N, 102.87°W
Report Text: KAIA 221353Z AUTO 29013KT 10SM CLR M01/M04 A2964 RMK AO2 SLP056 T10111044
Loading
Personal Weather Stations






























Interactive Weather Map New forecast layout! Learn more

10-Day Weather Forecast

Advertisements
Track Severe Weather on mobile